createdAt,value
2018-05-03T00:01:40.599Z,7.00
2018-05-03T00:04:09.011Z,8.02
2018-05-03T00:06:37.306Z,8.48
2018-05-03T00:09:05.565Z,7.14
2018-05-03T00:11:33.854Z,7.70
2018-05-03T00:14:02.140Z,7.32
2018-05-03T00:16:30.431Z,6.60
2018-05-03T00:18:58.752Z,7.18
2018-05-03T00:21:27.013Z,6.30
2018-05-03T00:23:56.531Z,5.68
2018-05-03T00:26:27.722Z,6.26
2018-05-03T00:28:55.994Z,7.04
2018-05-03T00:31:25.519Z,6.16
2018-05-03T00:33:53.020Z,5.90
2018-05-03T00:36:21.327Z,5.54
2018-05-03T00:38:48.825Z,6.14
2018-05-03T00:41:17.102Z,6.90
2018-05-03T00:43:46.340Z,6.14
2018-05-03T00:46:14.606Z,5.66
2018-05-03T00:48:42.106Z,7.18
2018-05-03T00:51:10.394Z,7.58
2018-05-03T00:53:38.818Z,7.12
2018-05-03T00:56:07.079Z,6.88
2018-05-03T00:58:34.609Z,8.32
2018-05-03T01:01:02.864Z,7.18
2018-05-03T01:03:30.374Z,7.64
2018-05-03T01:05:57.908Z,6.80
2018-05-03T01:08:26.378Z,7.40
2018-05-03T01:10:56.173Z,8.10
2018-05-03T01:13:24.463Z,8.04
2018-05-03T01:15:52.767Z,8.18
2018-05-03T01:18:20.298Z,8.58
2018-05-03T01:20:49.395Z,8.54
2018-05-03T01:23:16.943Z,9.14
2018-05-03T01:25:45.221Z,10.08
2018-05-03T01:28:13.497Z,8.88
2018-05-03T01:30:41.798Z,8.56
2018-05-03T01:33:09.308Z,8.84
2018-05-03T01:35:49.261Z,9.70
2018-05-03T01:38:17.437Z,10.48
2018-05-03T01:40:45.695Z,10.08
2018-05-03T01:43:13.239Z,9.14
2018-05-03T01:45:40.749Z,9.64
2018-05-03T01:48:09.052Z,10.58
2018-05-03T01:50:37.365Z,10.92
2018-05-03T01:53:05.654Z,12.32
2018-05-03T01:55:33.917Z,10.60
2018-05-03T01:58:02.572Z,10.84
2018-05-03T02:00:30.856Z,12.28
2018-05-03T02:02:58.369Z,11.80
2018-05-03T02:05:26.665Z,10.88
2018-05-03T02:07:55.278Z,11.06
2018-05-03T02:10:25.230Z,12.18
2018-05-03T02:12:52.733Z,12.02
2018-05-03T02:15:20.279Z,11.76
2018-05-03T02:17:48.279Z,11.60
2018-05-03T02:20:16.559Z,10.20
2018-05-03T02:22:44.088Z,10.56
2018-05-03T02:25:11.586Z,10.00
2018-05-03T02:27:39.884Z,8.68
2018-05-03T02:30:08.192Z,9.80
2018-05-03T02:32:35.742Z,8.48
2018-05-03T02:35:04.009Z,7.70
2018-05-03T02:37:32.274Z,7.66
2018-05-03T02:40:00.595Z,7.18
2018-05-03T02:42:28.865Z,7.44
2018-05-03T02:44:57.695Z,7.42
2018-05-03T02:47:26.001Z,7.90
2018-05-03T02:49:54.996Z,6.50
2018-05-03T02:52:22.526Z,6.28
2018-05-03T02:54:50.018Z,6.48
2018-05-03T02:57:29.243Z,6.30
2018-05-03T03:00:09.406Z,5.98
2018-05-03T03:02:55.138Z,5.84
2018-05-03T03:05:40.823Z,7.50
2018-05-03T03:08:21.353Z,7.22
2018-05-03T03:11:07.758Z,7.32
2018-05-03T03:14:21.333Z,6.12
2018-05-03T03:17:06.199Z,6.42
2018-05-03T03:19:42.074Z,6.68
2018-05-03T03:22:27.137Z,6.42
2018-05-03T03:25:06.242Z,6.12
2018-05-03T03:27:52.882Z,6.58
2018-05-03T03:30:38.641Z,6.60
2018-05-03T03:33:19.694Z,6.04
2018-05-03T03:36:07.669Z,5.70
2018-05-03T03:38:48.430Z,7.10
2018-05-03T03:41:28.424Z,7.32
2018-05-03T03:44:08.619Z,6.70
2018-05-03T03:46:36.877Z,6.22
2018-05-03T03:49:05.169Z,6.34
2018-05-03T03:51:32.671Z,7.70
2018-05-03T03:54:00.961Z,6.70
2018-05-03T03:56:28.486Z,6.98
2018-05-03T03:58:56.752Z,6.62
2018-05-03T04:01:25.690Z,5.84
2018-05-03T04:03:55.159Z,6.88
2018-05-03T04:06:23.455Z,6.62
2018-05-03T04:08:51.689Z,7.48
2018-05-03T04:11:19.958Z,6.36
2018-05-03T04:13:47.493Z,7.66
2018-05-03T04:16:15.761Z,7.08
2018-05-03T04:18:55.799Z,7.26
2018-05-03T04:21:35.857Z,7.70
2018-05-03T04:24:14.949Z,6.46
2018-05-03T04:26:43.215Z,6.40
2018-05-03T04:29:11.522Z,6.52
2018-05-03T04:31:39.794Z,6.84
2018-05-03T04:34:08.066Z,6.76
2018-05-03T04:36:35.600Z,7.20
2018-05-03T04:39:03.880Z,7.98
2018-05-03T04:41:32.173Z,7.10
2018-05-03T04:43:59.678Z,6.70
2018-05-03T04:46:27.991Z,7.42
2018-05-03T04:48:56.594Z,7.92
2018-05-03T04:51:24.861Z,8.40
2018-05-03T04:53:52.392Z,7.64
2018-05-03T04:56:19.885Z,8.22
2018-05-03T04:58:47.423Z,6.88
2018-05-03T05:01:15.697Z,6.80
2018-05-03T05:03:43.962Z,8.46
2018-05-03T05:06:11.505Z,7.80
2018-05-03T05:08:39.762Z,7.64
2018-05-03T05:11:08.033Z,8.72
2018-05-03T05:13:35.566Z,8.20
2018-05-03T05:16:03.845Z,7.52
2018-05-03T05:18:32.146Z,8.54
2018-05-03T05:21:00.414Z,7.40
2018-05-03T05:23:27.947Z,7.48
2018-05-03T05:25:56.557Z,7.68
2018-05-03T05:28:25.270Z,7.60
2018-05-03T05:30:55.219Z,8.30
2018-05-03T05:33:23.481Z,8.18
2018-05-03T05:35:50.981Z,7.68
2018-05-03T05:38:20.356Z,7.16
2018-05-03T05:40:49.545Z,7.46
2018-05-03T05:43:17.079Z,7.50
2018-05-03T05:45:45.341Z,7.56
2018-05-03T05:48:13.641Z,7.22
2018-05-03T05:50:41.907Z,8.16
2018-05-03T05:53:10.209Z,8.54
2018-05-03T05:55:37.717Z,8.08
2018-05-03T05:58:05.985Z,7.22
2018-05-03T06:00:34.279Z,8.00
2018-05-03T06:03:01.771Z,8.20
2018-05-03T06:05:29.316Z,7.62
2018-05-03T06:07:57.102Z,7.84
2018-05-03T06:10:26.339Z,8.46
2018-05-03T06:12:55.456Z,6.76
2018-05-03T06:15:23.894Z,8.78
2018-05-03T06:17:51.406Z,7.92
2018-05-03T06:20:20.806Z,8.00
2018-05-03T06:22:48.369Z,8.22
2018-05-03T06:25:15.897Z,8.62
2018-05-03T06:27:44.194Z,10.30
2018-05-03T06:30:12.466Z,7.54
2018-05-03T06:32:40.013Z,8.28
2018-05-03T06:35:08.268Z,6.32
2018-05-03T06:37:36.568Z,8.54
2018-05-03T06:40:04.822Z,7.92
2018-05-03T06:42:33.117Z,7.86
2018-05-03T06:45:00.671Z,7.32
2018-05-03T06:47:28.179Z,8.94
2018-05-03T06:49:56.437Z,6.64
2018-05-03T06:52:24.746Z,6.90
2018-05-03T06:54:52.287Z,7.40
2018-05-03T06:57:20.551Z,6.72
2018-05-03T06:59:48.833Z,6.54
2018-05-03T07:02:17.099Z,7.10
2018-05-03T07:04:44.626Z,8.22
2018-05-03T07:07:12.903Z,7.36
2018-05-03T07:09:41.200Z,7.86
2018-05-03T07:12:08.703Z,7.92
2018-05-03T07:14:36.229Z,7.52
2018-05-03T07:17:03.726Z,8.12
2018-05-03T07:19:32.022Z,7.08
2018-05-03T07:21:59.565Z,7.14
2018-05-03T07:24:27.071Z,6.92
2018-05-03T07:26:56.102Z,7.66
2018-05-03T07:29:25.342Z,7.64
2018-05-03T07:31:54.224Z,7.10
2018-05-03T07:34:21.718Z,6.34
2018-05-03T07:36:50.463Z,7.08
2018-05-03T07:39:19.542Z,7.12
2018-05-03T07:41:48.557Z,6.22
2018-05-03T07:44:16.053Z,6.64
2018-05-03T07:46:43.619Z,7.30
2018-05-03T07:49:11.917Z,6.66
2018-05-03T07:51:39.414Z,6.28
2018-05-03T07:54:06.918Z,7.08
2018-05-03T07:56:34.484Z,6.48
2018-05-03T07:59:04.125Z,7.02
2018-05-03T08:01:31.652Z,7.42
2018-05-03T08:03:59.190Z,6.06
2018-05-03T08:06:27.487Z,6.52
2018-05-03T08:08:56.819Z,7.32
2018-05-03T08:11:26.310Z,5.50
2018-05-03T08:13:55.551Z,5.98
2018-05-03T08:16:23.821Z,7.00
2018-05-03T08:18:51.323Z,6.96
2018-05-03T08:21:20.733Z,6.38
2018-05-03T08:23:48.994Z,6.26
2018-05-03T08:26:16.513Z,5.68
2018-05-03T08:28:44.787Z,5.42
2018-05-03T08:31:13.097Z,6.98
2018-05-03T08:33:40.593Z,5.02
2018-05-03T08:36:08.858Z,7.74
2018-05-03T08:38:37.772Z,6.04
2018-05-03T08:41:06.041Z,5.12
2018-05-03T08:43:35.444Z,5.38
2018-05-03T08:46:04.246Z,5.14
2018-05-03T08:48:32.509Z,5.06
2018-05-03T08:51:00.797Z,6.08
2018-05-03T08:53:29.113Z,4.64
2018-05-03T08:55:57.384Z,4.88
2018-05-03T08:58:26.285Z,5.78
2018-05-03T09:00:56.303Z,4.68
2018-05-03T09:03:25.405Z,5.62
2018-05-03T09:05:52.934Z,5.10
2018-05-03T09:08:20.448Z,5.26
2018-05-03T09:10:49.570Z,4.40
2018-05-03T09:13:17.066Z,5.38
2018-05-03T09:15:45.355Z,5.30
2018-05-03T09:18:12.853Z,3.86
2018-05-03T09:20:41.171Z,4.10
2018-05-03T09:23:09.662Z,4.52
2018-05-03T09:25:37.219Z,3.86
2018-05-03T09:28:04.713Z,4.74
2018-05-03T09:30:32.985Z,5.76
2018-05-03T09:33:01.465Z,4.74
2018-05-03T09:35:29.030Z,4.02
2018-05-03T09:37:56.539Z,4.00
2018-05-03T09:40:24.813Z,5.42
2018-05-03T09:42:52.337Z,3.76
2018-05-03T09:45:20.957Z,3.60
2018-05-03T09:47:49.180Z,4.50
2018-05-03T09:50:17.437Z,3.76
2018-05-03T09:52:44.951Z,5.00
2018-05-03T09:55:13.212Z,4.24
2018-05-03T09:57:40.744Z,3.48
2018-05-03T10:00:09.953Z,3.16
2018-05-03T10:02:38.825Z,4.54
2018-05-03T10:05:07.274Z,4.12
2018-05-03T10:07:34.806Z,4.18
2018-05-03T10:10:03.066Z,4.36
2018-05-03T10:12:30.597Z,3.98
2018-05-03T10:14:58.869Z,4.60
2018-05-03T10:17:26.433Z,4.38
2018-05-03T10:19:55.306Z,4.74
2018-05-03T10:22:24.785Z,4.24
2018-05-03T10:24:53.068Z,4.94
2018-05-03T10:27:20.589Z,4.34
2018-05-03T10:29:48.877Z,5.08
2018-05-03T10:32:16.377Z,4.40
2018-05-03T10:34:44.822Z,4.48
2018-05-03T10:37:12.352Z,4.22
2018-05-03T10:39:40.644Z,4.60
2018-05-03T10:42:08.213Z,4.74
2018-05-03T10:44:35.677Z,5.68
2018-05-03T10:47:03.173Z,4.78
2018-05-03T10:49:32.400Z,3.70
2018-05-03T10:51:59.918Z,4.82
2018-05-03T10:54:27.445Z,4.62
2018-05-03T10:56:55.683Z,4.48
2018-05-03T10:59:24.934Z,4.60
2018-05-03T11:01:52.454Z,4.98
2018-05-03T11:04:20.003Z,4.72
2018-05-03T11:06:49.293Z,5.42
2018-05-03T11:09:17.580Z,6.12
2018-05-03T11:11:45.106Z,5.58
2018-05-03T11:14:12.648Z,5.68
2018-05-03T11:16:40.246Z,7.66
2018-05-03T11:19:09.400Z,6.40
2018-05-03T11:21:36.917Z,6.36
2018-05-03T11:24:05.378Z,6.94
2018-05-03T11:26:32.904Z,3.90
2018-05-03T11:29:02.178Z,5.66
2018-05-03T11:31:30.551Z,4.32
2018-05-03T11:33:58.897Z,5.30
2018-05-03T11:36:27.194Z,4.40
2018-05-03T11:38:56.697Z,3.96
2018-05-03T11:41:24.707Z,7.22
2018-05-03T11:43:52.209Z,6.82
2018-05-03T11:46:20.958Z,5.38
2018-05-03T11:48:50.662Z,6.66
2018-05-03T11:51:18.935Z,5.86
2018-05-03T11:53:46.471Z,4.30
2018-05-03T11:56:13.993Z,4.20
2018-05-03T11:58:41.499Z,4.88
2018-05-03T12:01:09.786Z,4.66
2018-05-03T12:03:38.213Z,4.80
2018-05-03T12:06:05.838Z,5.34
2018-05-03T12:08:34.041Z,7.24
2018-05-03T12:11:02.294Z,5.38
2018-05-03T12:13:30.747Z,4.52
2018-05-03T12:15:58.247Z,4.26
2018-05-03T12:18:26.330Z,4.12
2018-05-03T12:20:55.450Z,4.72
2018-05-03T12:23:24.443Z,4.20
2018-05-03T12:25:56.706Z,4.00
2018-05-03T12:28:26.027Z,3.54
2018-05-03T12:30:55.686Z,4.54
2018-05-03T12:33:23.210Z,3.66
2018-05-03T12:35:50.724Z,4.88
2018-05-03T12:38:18.882Z,4.94
2018-05-03T12:40:47.170Z,4.24
2018-05-03T12:43:14.669Z,5.14
2018-05-03T12:45:43.142Z,4.72
2018-05-03T12:48:10.654Z,4.70
2018-05-03T12:50:39.933Z,4.08
2018-05-03T12:53:08.241Z,4.06
2018-05-03T12:55:36.760Z,4.76
2018-05-03T12:58:04.253Z,5.26
2018-05-03T13:00:33.448Z,3.62
2018-05-03T13:03:00.950Z,4.78
2018-05-03T13:05:28.492Z,4.48
2018-05-03T13:07:56.767Z,5.30
2018-05-03T13:10:26.492Z,3.90
2018-05-03T13:12:54.873Z,5.96
2018-05-03T13:15:23.138Z,4.50
2018-05-03T13:17:51.384Z,3.92
2018-05-03T13:20:20.553Z,4.18
2018-05-03T13:22:48.563Z,3.92
2018-05-03T13:25:16.026Z,3.60
2018-05-03T13:27:44.284Z,3.64
2018-05-03T13:30:12.588Z,3.98
2018-05-03T13:32:40.114Z,3.88
2018-05-03T13:35:08.374Z,3.32
2018-05-03T13:37:36.667Z,3.34
2018-05-03T13:40:04.960Z,4.32
2018-05-03T13:42:33.254Z,3.48
2018-05-03T13:45:01.531Z,3.60
2018-05-03T13:47:29.869Z,3.38
2018-05-03T13:49:58.094Z,4.06
2018-05-03T13:52:26.850Z,4.00
2018-05-03T13:54:56.212Z,3.42
2018-05-03T13:57:26.065Z,3.78
2018-05-03T13:59:55.751Z,3.78
2018-05-03T14:02:25.109Z,4.02
2018-05-03T14:04:52.626Z,3.58
2018-05-03T14:07:20.263Z,3.74
2018-05-03T14:09:49.562Z,3.76
2018-05-03T14:12:18.631Z,3.72
2018-05-03T14:14:46.122Z,3.94
2018-05-03T14:17:14.403Z,3.68
2018-05-03T14:19:42.670Z,3.18
2018-05-03T14:22:10.958Z,3.16
2018-05-03T14:24:38.512Z,4.94
2018-05-03T14:27:06.022Z,3.56
2018-05-03T14:29:34.278Z,3.24
2018-05-03T14:32:01.814Z,3.62
2018-05-03T14:34:29.321Z,3.82
2018-05-03T14:36:57.144Z,4.10
2018-05-03T14:39:26.536Z,3.80
2018-05-03T14:41:54.819Z,3.26
2018-05-03T14:44:22.354Z,4.26
2018-05-03T14:46:50.837Z,3.46
2018-05-03T14:49:19.135Z,3.64
2018-05-03T14:51:46.643Z,3.14
2018-05-03T14:54:14.942Z,4.00
2018-05-03T14:56:43.268Z,3.40
2018-05-03T14:59:11.530Z,3.92
2018-05-03T15:01:39.801Z,3.70
2018-05-03T15:04:08.089Z,3.38
2018-05-03T15:06:35.608Z,3.54
2018-05-03T15:09:03.921Z,4.46
2018-05-03T15:11:31.425Z,3.12
2018-05-03T15:13:59.873Z,4.66
2018-05-03T15:16:28.240Z,3.24
2018-05-03T15:18:56.498Z,4.12
2018-05-03T15:21:25.077Z,3.70
2018-05-03T15:23:54.729Z,3.58
2018-05-03T15:26:22.258Z,3.28
2018-05-03T15:28:51.023Z,3.74
2018-05-03T15:31:20.417Z,4.14
2018-05-03T15:33:48.525Z,3.50
2018-05-03T15:36:16.778Z,4.52
2018-05-03T15:38:45.077Z,3.94
2018-05-03T15:41:13.340Z,3.50
2018-05-03T15:43:42.525Z,3.88
2018-05-03T15:46:10.048Z,3.78
2018-05-03T15:48:37.537Z,4.76
2018-05-03T15:51:05.834Z,4.28
2018-05-03T15:53:34.272Z,3.46
2018-05-03T15:56:01.748Z,3.52
2018-05-03T15:58:29.285Z,4.58
2018-05-03T16:00:57.550Z,4.10
2018-05-03T16:03:25.811Z,4.68
2018-05-03T16:05:55.206Z,4.06
2018-05-03T16:08:22.710Z,5.54
2018-05-03T16:10:51.011Z,4.30
2018-05-03T16:13:18.566Z,3.50
2018-05-03T16:15:46.857Z,3.66
2018-05-03T16:18:14.348Z,4.48
2018-05-03T16:20:42.605Z,3.50
2018-05-03T16:23:10.930Z,4.94
2018-05-03T16:25:39.196Z,3.80
2018-05-03T16:28:06.692Z,4.40
2018-05-03T16:30:34.995Z,3.72
2018-05-03T16:33:02.523Z,4.34
2018-05-03T16:35:30.769Z,4.28
2018-05-03T16:37:59.047Z,4.34
2018-05-03T16:40:27.374Z,3.76
2018-05-03T16:42:54.870Z,3.70
2018-05-03T16:45:22.365Z,4.38
2018-05-03T16:47:50.498Z,2.88
2018-05-03T16:50:19.950Z,3.92
2018-05-03T16:52:48.649Z,3.38
2018-05-03T16:55:16.134Z,4.50
2018-05-03T16:57:44.439Z,3.68
2018-05-03T17:00:12.689Z,3.76
2018-05-03T17:02:40.981Z,3.20
2018-05-03T17:05:09.246Z,3.72
2018-05-03T17:07:37.538Z,3.48
2018-05-03T17:10:05.797Z,3.78
2018-05-03T17:12:33.291Z,3.14
2018-05-03T17:15:00.821Z,3.98
2018-05-03T17:17:29.073Z,3.38
2018-05-03T17:19:57.350Z,3.42
2018-05-03T17:22:24.888Z,3.16
2018-05-03T17:24:52.377Z,3.08
2018-05-03T17:27:20.695Z,3.60
2018-05-03T17:29:49.922Z,3.62
2018-05-03T17:32:17.408Z,3.64
2018-05-03T17:34:45.685Z,3.84
2018-05-03T17:37:13.182Z,3.50
2018-05-03T17:39:41.470Z,3.52
2018-05-03T17:42:09.745Z,3.88
2018-05-03T17:44:39.235Z,4.44
2018-05-03T17:47:07.510Z,4.20
2018-05-03T17:49:35.821Z,4.58
2018-05-03T17:52:03.357Z,5.02
2018-05-03T17:54:30.862Z,4.32
2018-05-03T17:56:58.417Z,4.82
2018-05-03T17:59:26.703Z,4.42
2018-05-03T18:01:55.132Z,5.08
2018-05-03T18:04:23.423Z,3.94
2018-05-03T18:06:51.679Z,3.74
2018-05-03T18:09:20.751Z,4.06
2018-05-03T18:11:48.649Z,5.06
2018-05-03T18:14:16.946Z,4.66
2018-05-03T18:16:44.437Z,6.06
2018-05-03T18:19:12.702Z,6.60
2018-05-03T18:21:40.225Z,4.76
2018-05-03T18:24:08.514Z,4.70
2018-05-03T18:26:36.819Z,3.74
2018-05-03T18:29:05.085Z,4.90
2018-05-03T18:31:33.353Z,4.24
2018-05-03T18:34:00.878Z,3.20
2018-05-03T18:36:28.381Z,4.02
2018-05-03T18:38:56.977Z,3.80
2018-05-03T18:41:25.920Z,3.54
2018-05-03T18:43:53.421Z,3.70
2018-05-03T18:46:21.758Z,3.90
2018-05-03T18:48:50.818Z,3.46
2018-05-03T18:51:19.113Z,3.34
2018-05-03T18:53:47.410Z,4.60
2018-05-03T18:56:16.577Z,4.16
2018-05-03T18:58:44.102Z,4.06
2018-05-03T19:01:12.456Z,3.60
2018-05-03T19:03:40.687Z,4.74
2018-05-03T19:06:08.965Z,3.38
2018-05-03T19:08:37.255Z,5.04
2018-05-03T19:11:05.516Z,3.56
2018-05-03T19:13:33.804Z,4.36
2018-05-03T19:16:01.316Z,3.64
2018-05-03T19:18:28.872Z,3.42
2018-05-03T19:20:57.139Z,3.86
2018-05-03T19:23:26.305Z,4.00
2018-05-03T19:25:55.442Z,4.32
2018-05-03T19:28:23.005Z,4.40
2018-05-03T19:30:51.309Z,3.78
2018-05-03T19:33:19.466Z,4.26
2018-05-03T19:35:46.989Z,4.48
2018-05-03T19:38:15.307Z,4.88
2018-05-03T19:40:43.594Z,4.00
2018-05-03T19:43:11.863Z,3.84
2018-05-03T19:45:39.394Z,3.72
2018-05-03T19:48:07.663Z,2.90
2018-05-03T19:50:35.961Z,3.60
2018-05-03T19:53:03.450Z,3.20
2018-05-03T19:55:31.808Z,4.02
2018-05-03T19:58:00.091Z,3.48
2018-05-03T20:00:28.388Z,3.52
2018-05-03T20:02:55.899Z,3.40
2018-05-03T20:05:23.426Z,3.78
2018-05-03T20:07:51.698Z,4.04
2018-05-03T20:10:20.587Z,3.84
2018-05-03T20:12:49.798Z,4.26
2018-05-03T20:15:17.337Z,3.88
2018-05-03T20:17:45.605Z,3.56
2018-05-03T20:20:13.896Z,4.14
2018-05-03T20:22:42.165Z,4.66
2018-05-03T20:25:09.669Z,4.10
2018-05-03T20:27:37.985Z,3.62
2018-05-03T20:30:06.264Z,4.12
2018-05-03T20:32:34.585Z,3.82
2018-05-03T20:35:02.871Z,3.54
2018-05-03T20:37:31.181Z,3.80
2018-05-03T20:39:59.483Z,3.18
2018-05-03T20:42:26.986Z,3.54
2018-05-03T20:44:56.497Z,4.22
2018-05-03T20:47:25.454Z,3.90
2018-05-03T20:49:54.311Z,3.20
2018-05-03T20:52:22.701Z,3.52
2018-05-03T20:54:50.235Z,4.02
2018-05-03T20:57:17.742Z,3.26
2018-05-03T20:59:46.031Z,3.86
2018-05-03T21:02:13.528Z,3.92
2018-05-03T21:04:41.036Z,3.70
2018-05-03T21:07:08.606Z,3.90
2018-05-03T21:09:36.845Z,3.30
2018-05-03T21:12:04.381Z,4.72
2018-05-03T21:14:31.873Z,3.82
2018-05-03T21:16:59.414Z,4.00
2018-05-03T21:19:27.684Z,3.72
2018-05-03T21:21:55.938Z,3.76
2018-05-03T21:24:25.274Z,3.94
2018-05-03T21:26:54.755Z,4.22
2018-05-03T21:29:23.045Z,3.54
2018-05-03T21:31:50.565Z,3.42
2018-05-03T21:34:19.644Z,3.58
2018-05-03T21:36:47.182Z,4.10
2018-05-03T21:39:15.452Z,3.68
2018-05-03T21:41:43.743Z,3.62
2018-05-03T21:44:11.252Z,4.00
2018-05-03T21:46:38.739Z,3.78
2018-05-03T21:49:07.044Z,4.34
2018-05-03T21:51:34.532Z,3.70
2018-05-03T21:54:02.021Z,3.58
2018-05-03T21:56:30.306Z,3.12
2018-05-03T21:58:58.577Z,3.56
2018-05-03T22:01:26.087Z,3.60
2018-05-03T22:03:54.398Z,3.28
2018-05-03T22:06:22.238Z,2.90
2018-05-03T22:08:50.529Z,3.36
2018-05-03T22:11:19.402Z,3.60
2018-05-03T22:13:47.744Z,3.96
2018-05-03T22:16:15.953Z,3.60
2018-05-03T22:18:43.434Z,3.20
2018-05-03T22:21:11.729Z,3.70
2018-05-03T22:23:40.023Z,3.38
2018-05-03T22:26:07.550Z,3.94
2018-05-03T22:28:35.064Z,3.44
2018-05-03T22:31:03.342Z,3.66
2018-05-03T22:33:30.877Z,3.48
2018-05-03T22:35:58.378Z,3.94
2018-05-03T22:38:25.897Z,3.46
2018-05-03T22:40:54.931Z,4.62
2018-05-03T22:43:23.142Z,4.46
2018-05-03T22:45:51.432Z,4.24
2018-05-03T22:48:19.741Z,4.78
2018-05-03T22:50:48.700Z,3.62
2018-05-03T22:53:16.208Z,4.16
2018-05-03T22:55:43.699Z,4.16
2018-05-03T22:58:11.999Z,4.30
2018-05-03T23:00:40.270Z,5.10
2018-05-03T23:03:08.563Z,4.42
2018-05-03T23:05:36.067Z,5.30
2018-05-03T23:08:03.598Z,4.22
2018-05-03T23:10:31.886Z,4.16
2018-05-03T23:13:00.145Z,4.90
2018-05-03T23:15:28.469Z,6.60
2018-05-03T23:17:56.752Z,4.68
2018-05-03T23:20:26.138Z,5.84
2018-05-03T23:22:54.503Z,3.98
2018-05-03T23:25:22.042Z,4.60
2018-05-03T23:27:50.318Z,4.26
2018-05-03T23:30:19.784Z,4.60
2018-05-03T23:32:47.225Z,3.94
2018-05-03T23:35:16.146Z,4.26
2018-05-03T23:37:44.413Z,3.50
2018-05-03T23:40:12.709Z,4.40
2018-05-03T23:42:41.011Z,5.24
2018-05-03T23:45:09.298Z,4.04
2018-05-03T23:47:36.809Z,3.44
2018-05-03T23:50:05.097Z,3.80
2018-05-03T23:52:33.350Z,4.80
2018-05-03T23:55:01.609Z,4.78
2018-05-03T23:57:29.888Z,4.26
2018-05-03T23:59:58.150Z,4.54
